Corning, Iowa
Current Conditions -  °F | °C
As of 11:35 AM on Thursday 23 Oct 2014 (Local Time) from KCSQ Reporting Station
Haze Haze  
Wind Chill: 15°   Ceiling: 900
Heat Index: 15°   Visibility: 3mi
Dew Point: 15°   Wind: 5mph
Humidity: 100%   Direction: 260°W
Pressure: 30.07"   Gusts: NA
Location:  40.99°N, 94.74°W
Report Text: KCSQ 231635Z AUTO 26004KT 3SM BR SCT003 BKN009 OVC018 15/15 A3007 RMK AO2
Loading
Personal Weather Stations






























Interactive Weather Map
Tropical Storm Tracking
New forecast layout! Learn more

10-Day Weather Forecast

Advertisements
Track Severe Weather on mobile